Terminal Aerodrome Forecast
Issued by NWS

Home | Current Version | Previous Version | Text Only | Print | Product List | Glossary On
Versions: 1 2 3 4 5 6 7 8 9 10 11 12 13 14 15 16 17 18 19 20 21 22 23 24 25 26 27
000
FTAK31 PANC 051206 AAA
TAFAEN
TAF AMD
PAEN 051206Z 0512/0612 20008KT P6SM SCT007 BKN120
      TEMPO 0512/0515 BKN007
     FM052200 23010KT P6SM SCT100 BKN150
     FM061100 20008KT P6SM FEW005 BKN100=

USA.gov is the U.S. government's official web portal to all federal, state and local government web resources and services.